sensor_id;sensor_type;location;lat;lon;timestamp;temperature;humidity
66598;DHT22;57424;53.128;6.406;2024-03-23T00:54:14;13.10;67.10
66598;DHT22;57424;53.128;6.406;2024-03-23T00:56:40;13.10;67.10
66598;DHT22;57424;53.128;6.406;2024-03-23T00:59:06;13.10;67.10
66598;DHT22;57424;53.128;6.406;2024-03-23T01:01:31;13.00;67.00
66598;DHT22;57424;53.128;6.406;2024-03-23T01:03:57;13.00;67.00
66598;DHT22;57424;53.128;6.406;2024-03-23T01:06:22;13.10;67.00
66598;DHT22;57424;53.128;6.406;2024-03-23T01:08:48;13.00;66.90
66598;DHT22;57424;53.128;6.406;2024-03-23T01:11:13;13.00;66.90
66598;DHT22;57424;53.128;6.406;2024-03-23T01:13:39;13.00;66.90
66598;DHT22;57424;53.128;6.406;2024-03-23T01:16:04;13.00;66.90
66598;DHT22;57424;53.128;6.406;2024-03-23T01:18:30;13.00;66.80
66598;DHT22;57424;53.128;6.406;2024-03-23T01:20:55;13.00;66.80
66598;DHT22;57424;53.128;6.406;2024-03-23T01:23:21;13.00;66.80
66598;DHT22;57424;53.128;6.406;2024-03-23T01:25:53;12.90;66.70
66598;DHT22;57424;53.128;6.406;2024-03-23T01:28:22;12.90;66.70
66598;DHT22;57424;53.128;6.406;2024-03-23T01:30:49;12.90;66.70
66598;DHT22;57424;53.128;6.406;2024-03-23T01:33:14;12.90;66.70
66598;DHT22;57424;53.128;6.406;2024-03-23T01:35:40;12.90;66.70
66598;DHT22;57424;53.128;6.406;2024-03-23T01:38:06;12.90;66.70
66598;DHT22;57424;53.128;6.406;2024-03-23T01:40:31;12.90;66.60
66598;DHT22;57424;53.128;6.406;2024-03-23T01:42:59;12.80;66.60
66598;DHT22;57424;53.128;6.406;2024-03-23T01:45:27;12.80;66.60
66598;DHT22;57424;53.128;6.406;2024-03-23T01:47:52;12.80;66.60
66598;DHT22;57424;53.128;6.406;2024-03-23T01:50:22;12.80;66.60
66598;DHT22;57424;53.128;6.406;2024-03-23T01:52:49;12.80;66.60
66598;DHT22;57424;53.128;6.406;2024-03-23T01:55:15;12.80;66.60
66598;DHT22;57424;53.128;6.406;2024-03-23T01:57:40;12.80;66.60
66598;DHT22;57424;53.128;6.406;2024-03-23T02:00:07;12.80;66.60
66598;DHT22;57424;53.128;6.406;2024-03-23T02:02:32;12.80;66.60
66598;DHT22;57424;53.128;6.406;2024-03-23T02:04:58;12.70;66.50
66598;DHT22;57424;53.128;6.406;2024-03-23T02:07:24;12.70;66.50
66598;DHT22;57424;53.128;6.406;2024-03-23T02:09:51;12.70;66.50
66598;DHT22;57424;53.128;6.406;2024-03-23T02:12:18;12.70;66.50
66598;DHT22;57424;53.128;6.406;2024-03-23T02:14:43;12.70;66.50
66598;DHT22;57424;53.128;6.406;2024-03-23T02:17:09;12.70;66.40
66598;DHT22;57424;53.128;6.406;2024-03-23T02:19:34;12.70;66.40
66598;DHT22;57424;53.128;6.406;2024-03-23T02:22:00;12.60;66.40
66598;DHT22;57424;53.128;6.406;2024-03-23T02:24:26;12.60;66.30
66598;DHT22;57424;53.128;6.406;2024-03-23T02:26:51;12.60;66.30
66598;DHT22;57424;53.128;6.406;2024-03-23T02:29:17;12.60;66.20
66598;DHT22;57424;53.128;6.406;2024-03-23T02:31:42;12.60;66.20
66598;DHT22;57424;53.128;6.406;2024-03-23T02:34:08;12.60;66.20
66598;DHT22;57424;53.128;6.406;2024-03-23T02:36:34;12.60;66.20
66598;DHT22;57424;53.128;6.406;2024-03-23T02:38:59;12.50;66.10
66598;DHT22;57424;53.128;6.406;2024-03-23T02:41:25;12.50;66.10
66598;DHT22;57424;53.128;6.406;2024-03-23T02:43:51;12.50;66.10
66598;DHT22;57424;53.128;6.406;2024-03-23T02:46:16;12.50;66.10
66598;DHT22;57424;53.128;6.406;2024-03-23T02:48:42;12.50;66.10
66598;DHT22;57424;53.128;6.406;2024-03-23T02:51:08;12.50;66.10
66598;DHT22;57424;53.128;6.406;2024-03-23T02:53:33;12.50;66.10
66598;DHT22;57424;53.128;6.406;2024-03-23T02:55:59;12.50;66.00
66598;DHT22;57424;53.128;6.406;2024-03-23T02:58:25;12.50;66.00
66598;DHT22;57424;53.128;6.406;2024-03-23T03:00:50;12.40;66.00
66598;DHT22;57424;53.128;6.406;2024-03-23T03:03:16;12.40;66.60
66598;DHT22;57424;53.128;6.406;2024-03-23T03:05:41;12.40;66.00
66598;DHT22;57424;53.128;6.406;2024-03-23T03:08:07;12.40;66.00
66598;DHT22;57424;53.128;6.406;2024-03-23T03:10:32;12.40;65.90
66598;DHT22;57424;53.128;6.406;2024-03-23T03:13:00;12.40;65.90
66598;DHT22;57424;53.128;6.406;2024-03-23T03:15:26;12.40;65.90
66598;DHT22;57424;53.128;6.406;2024-03-23T03:17:51;12.40;65.90
66598;DHT22;57424;53.128;6.406;2024-03-23T03:20:17;12.40;65.90
66598;DHT22;57424;53.128;6.406;2024-03-23T03:22:43;12.30;65.80
66598;DHT22;57424;53.128;6.406;2024-03-23T03:25:09;12.30;65.80
66598;DHT22;57424;53.128;6.406;2024-03-23T03:27:34;12.30;65.80
66598;DHT22;57424;53.128;6.406;2024-03-23T03:30:00;12.30;65.80
66598;DHT22;57424;53.128;6.406;2024-03-23T03:32:29;12.30;65.80
66598;DHT22;57424;53.128;6.406;2024-03-23T03:34:54;12.30;65.80
66598;DHT22;57424;53.128;6.406;2024-03-23T03:37:20;12.30;65.80
66598;DHT22;57424;53.128;6.406;2024-03-23T03:39:45;12.20;65.70
66598;DHT22;57424;53.128;6.406;2024-03-23T03:42:11;12.20;65.70
66598;DHT22;57424;53.128;6.406;2024-03-23T03:44:36;12.20;65.70
66598;DHT22;57424;53.128;6.406;2024-03-23T03:47:02;12.20;65.70
66598;DHT22;57424;53.128;6.406;2024-03-23T03:49:28;12.20;65.60
66598;DHT22;57424;53.128;6.406;2024-03-23T03:51:53;12.20;65.60
66598;DHT22;57424;53.128;6.406;2024-03-23T03:54:19;12.20;65.60
66598;DHT22;57424;53.128;6.406;2024-03-23T03:56:45;12.20;65.60
66598;DHT22;57424;53.128;6.406;2024-03-23T03:59:10;12.10;65.60
66598;DHT22;57424;53.128;6.406;2024-03-23T04:01:36;12.10;65.60
66598;DHT22;57424;53.128;6.406;2024-03-23T04:04:01;12.10;65.60
66598;DHT22;57424;53.128;6.406;2024-03-23T04:06:27;12.10;65.50
66598;DHT22;57424;53.128;6.406;2024-03-23T04:08:52;12.10;65.40
66598;DHT22;57424;53.128;6.406;2024-03-23T04:11:18;12.10;65.40
66598;DHT22;57424;53.128;6.406;2024-03-23T04:13:43;12.10;65.40
66598;DHT22;57424;53.128;6.406;2024-03-23T04:16:09;12.10;65.50
66598;DHT22;57424;53.128;6.406;2024-03-23T04:18:35;12.10;65.50
66598;DHT22;57424;53.128;6.406;2024-03-23T04:21:00;12.10;65.60
66598;DHT22;57424;53.128;6.406;2024-03-23T04:23:26;12.00;65.50
66598;DHT22;57424;53.128;6.406;2024-03-23T04:25:52;12.00;65.40
66598;DHT22;57424;53.128;6.406;2024-03-23T04:28:19;12.00;65.40
66598;DHT22;57424;53.128;6.406;2024-03-23T04:30:44;12.00;65.40
66598;DHT22;57424;53.128;6.406;2024-03-23T04:33:10;12.00;65.40
66598;DHT22;57424;53.128;6.406;2024-03-23T04:35:35;11.90;65.40
66598;DHT22;57424;53.128;6.406;2024-03-23T04:38:01;12.00;65.50
66598;DHT22;57424;53.128;6.406;2024-03-23T04:40:27;11.90;65.50
66598;DHT22;57424;53.128;6.406;2024-03-23T04:42:53;12.00;65.60
66598;DHT22;57424;53.128;6.406;2024-03-23T04:45:18;11.90;65.50
66598;DHT22;57424;53.128;6.406;2024-03-23T04:47:44;11.90;65.50
66598;DHT22;57424;53.128;6.406;2024-03-23T04:50:10;11.90;65.50
66598;DHT22;57424;53.128;6.406;2024-03-23T04:52:38;11.90;65.50
66598;DHT22;57424;53.128;6.406;2024-03-23T04:55:04;11.90;65.50
66598;DHT22;57424;53.128;6.406;2024-03-23T04:57:29;11.90;65.50
66598;DHT22;57424;53.128;6.406;2024-03-23T04:59:55;11.90;65.50
66598;DHT22;57424;53.128;6.406;2024-03-23T05:02:20;11.90;65.50
66598;DHT22;57424;53.128;6.406;2024-03-23T05:04:46;11.90;65.50
66598;DHT22;57424;53.128;6.406;2024-03-23T05:07:12;11.80;65.50
66598;DHT22;57424;53.128;6.406;2024-03-23T05:09:38;11.80;65.60
66598;DHT22;57424;53.128;6.406;2024-03-23T05:12:03;11.80;65.50
66598;DHT22;57424;53.128;6.406;2024-03-23T05:14:29;11.80;65.50
66598;DHT22;57424;53.128;6.406;2024-03-23T05:16:55;11.80;65.50
66598;DHT22;57424;53.128;6.406;2024-03-23T05:19:21;11.80;65.50
66598;DHT22;57424;53.128;6.406;2024-03-23T05:21:47;11.80;65.60
66598;DHT22;57424;53.128;6.406;2024-03-23T05:24:13;11.80;65.50
66598;DHT22;57424;53.128;6.406;2024-03-23T05:26:38;11.80;65.50
66598;DHT22;57424;53.128;6.406;2024-03-23T05:29:04;11.80;65.60
66598;DHT22;57424;53.128;6.406;2024-03-23T05:31:32;11.70;65.50
66598;DHT22;57424;53.128;6.406;2024-03-23T05:33:58;11.70;65.50
66598;DHT22;57424;53.128;6.406;2024-03-23T05:36:23;11.70;65.50
66598;DHT22;57424;53.128;6.406;2024-03-23T05:38:52;11.70;65.50
66598;DHT22;57424;53.128;6.406;2024-03-23T05:41:17;11.70;65.50
66598;DHT22;57424;53.128;6.406;2024-03-23T05:43:43;11.70;65.50
66598;DHT22;57424;53.128;6.406;2024-03-23T05:46:08;11.70;65.50
66598;DHT22;57424;53.128;6.406;2024-03-23T05:48:34;11.70;65.50
66598;DHT22;57424;53.128;6.406;2024-03-23T05:51:00;11.70;66.10
66598;DHT22;57424;53.128;6.406;2024-03-23T05:53:26;11.70;65.50
66598;DHT22;57424;53.128;6.406;2024-03-23T05:56:01;11.70;65.60
66598;DHT22;57424;53.128;6.406;2024-03-23T05:58:29;11.70;65.60
66598;DHT22;57424;53.128;6.406;2024-03-23T06:01:03;11.70;65.60
66598;DHT22;57424;53.128;6.406;2024-03-23T06:03:29;11.70;65.70
66598;DHT22;57424;53.128;6.406;2024-03-23T06:05:55;11.70;65.80
66598;DHT22;57424;53.128;6.406;2024-03-23T06:08:21;11.70;65.70
66598;DHT22;57424;53.128;6.406;2024-03-23T06:10:47;11.70;65.70
66598;DHT22;57424;53.128;6.406;2024-03-23T06:13:13;11.70;65.80
66598;DHT22;57424;53.128;6.406;2024-03-23T06:15:39;11.70;65.80
66598;DHT22;57424;53.128;6.406;2024-03-23T06:18:05;11.70;65.80
66598;DHT22;57424;53.128;6.406;2024-03-23T06:20:32;11.70;65.80
66598;DHT22;57424;53.128;6.406;2024-03-23T06:22:58;11.70;65.90
66598;DHT22;57424;53.128;6.406;2024-03-23T06:25:23;11.70;65.90
66598;DHT22;57424;53.128;6.406;2024-03-23T06:27:49;11.70;65.90
66598;DHT22;57424;53.128;6.406;2024-03-23T06:30:14;11.70;65.90
66598;DHT22;57424;53.128;6.406;2024-03-23T06:32:40;11.70;65.90
66598;DHT22;57424;53.128;6.406;2024-03-23T06:35:06;11.70;65.90
66598;DHT22;57424;53.128;6.406;2024-03-23T06:37:35;11.70;66.60
66598;DHT22;57424;53.128;6.406;2024-03-23T06:40:00;11.70;66.60
66598;DHT22;57424;53.128;6.406;2024-03-23T06:42:26;11.70;66.00
66598;DHT22;57424;53.128;6.406;2024-03-23T06:44:51;11.70;66.00
66598;DHT22;57424;53.128;6.406;2024-03-23T06:47:17;11.70;66.40
66598;DHT22;57424;53.128;6.406;2024-03-23T06:49:42;11.70;66.00
66598;DHT22;57424;53.128;6.406;2024-03-23T06:52:08;11.80;66.10
66598;DHT22;57424;53.128;6.406;2024-03-23T06:54:34;11.70;66.10
66598;DHT22;57424;53.128;6.406;2024-03-23T06:56:59;11.80;66.10
66598;DHT22;57424;53.128;6.406;2024-03-23T06:59:25;11.80;66.20
66598;DHT22;57424;53.128;6.406;2024-03-23T07:01:50;11.80;66.20
66598;DHT22;57424;53.128;6.406;2024-03-23T07:04:16;11.80;66.40
66598;DHT22;57424;53.128;6.406;2024-03-23T07:06:45;11.90;66.50
66598;DHT22;57424;53.128;6.406;2024-03-23T07:09:11;11.90;66.50
66598;DHT22;57424;53.128;6.406;2024-03-23T07:11:37;11.90;66.40
66598;DHT22;57424;53.128;6.406;2024-03-23T07:14:03;11.90;66.40
66598;DHT22;57424;53.128;6.406;2024-03-23T07:16:29;11.90;66.40
66598;DHT22;57424;53.128;6.406;2024-03-23T07:18:55;12.00;66.40
66598;DHT22;57424;53.128;6.406;2024-03-23T07:21:21;12.00;66.30
66598;DHT22;57424;53.128;6.406;2024-03-23T07:23:46;12.00;66.30
66598;DHT22;57424;53.128;6.406;2024-03-23T07:26:12;12.00;66.30
66598;DHT22;57424;53.128;6.406;2024-03-23T07:28:38;12.10;66.30
66598;DHT22;57424;53.128;6.406;2024-03-23T07:31:08;12.10;66.30
66598;DHT22;57424;53.128;6.406;2024-03-23T07:33:35;12.10;66.40
66598;DHT22;57424;53.128;6.406;2024-03-23T07:36:01;12.10;66.30
66598;DHT22;57424;53.128;6.406;2024-03-23T07:38:28;12.20;66.30
66598;DHT22;57424;53.128;6.406;2024-03-23T07:41:10;12.20;66.20
66598;DHT22;57424;53.128;6.406;2024-03-23T07:43:37;12.20;66.20
66598;DHT22;57424;53.128;6.406;2024-03-23T07:46:03;12.20;66.10
66598;DHT22;57424;53.128;6.406;2024-03-23T07:48:30;12.30;66.10
66598;DHT22;57424;53.128;6.406;2024-03-23T07:50:59;12.30;66.20
66598;DHT22;57424;53.128;6.406;2024-03-23T07:53:25;12.30;66.10
66598;DHT22;57424;53.128;6.406;2024-03-23T07:56:01;12.30;66.10
66598;DHT22;57424;53.128;6.406;2024-03-23T07:58:27;12.30;66.00
66598;DHT22;57424;53.128;6.406;2024-03-23T08:00:54;12.30;65.90
66598;DHT22;57424;53.128;6.406;2024-03-23T08:03:19;12.40;65.90
66598;DHT22;57424;53.128;6.406;2024-03-23T08:05:45;12.40;65.90
66598;DHT22;57424;53.128;6.406;2024-03-23T08:08:11;12.40;65.90
66598;DHT22;57424;53.128;6.406;2024-03-23T08:10:46;12.40;65.90
66598;DHT22;57424;53.128;6.406;2024-03-23T08:13:12;12.40;65.90
66598;DHT22;57424;53.128;6.406;2024-03-23T08:15:37;12.50;65.90
66598;DHT22;57424;53.128;6.406;2024-03-23T08:18:03;12.40;65.80
66598;DHT22;57424;53.128;6.406;2024-03-23T08:20:28;12.50;65.80
66598;DHT22;57424;53.128;6.406;2024-03-23T08:22:54;12.50;65.90
66598;DHT22;57424;53.128;6.406;2024-03-23T08:25:19;12.60;65.90
66598;DHT22;57424;53.128;6.406;2024-03-23T08:27:45;12.60;65.90
66598;DHT22;57424;53.128;6.406;2024-03-23T08:30:11;12.60;65.90
66598;DHT22;57424;53.128;6.406;2024-03-23T08:32:37;12.70;65.90
66598;DHT22;57424;53.128;6.406;2024-03-23T08:35:02;12.80;66.00
66598;DHT22;57424;53.128;6.406;2024-03-23T08:37:28;12.80;66.00
66598;DHT22;57424;53.128;6.406;2024-03-23T08:39:53;12.90;66.10
66598;DHT22;57424;53.128;6.406;2024-03-23T08:42:19;12.90;66.00
66598;DHT22;57424;53.128;6.406;2024-03-23T08:44:46;13.00;66.00
66598;DHT22;57424;53.128;6.406;2024-03-23T08:47:15;13.00;65.80
66598;DHT22;57424;53.128;6.406;2024-03-23T08:49:40;13.00;65.70
66598;DHT22;57424;53.128;6.406;2024-03-23T08:52:06;13.00;65.60
66598;DHT22;57424;53.128;6.406;2024-03-23T08:54:32;13.00;65.60
66598;DHT22;57424;53.128;6.406;2024-03-23T08:56:57;13.00;65.60
66598;DHT22;57424;53.128;6.406;2024-03-23T08:59:23;13.10;65.70
66598;DHT22;57424;53.128;6.406;2024-03-23T09:01:49;13.20;65.80
66598;DHT22;57424;53.128;6.406;2024-03-23T09:04:14;13.20;65.80
66598;DHT22;57424;53.128;6.406;2024-03-23T09:06:42;13.20;65.70
66598;DHT22;57424;53.128;6.406;2024-03-23T09:09:08;13.20;65.70
66598;DHT22;57424;53.128;6.406;2024-03-23T09:11:33;13.20;65.70
66598;DHT22;57424;53.128;6.406;2024-03-23T09:13:59;13.20;65.70
66598;DHT22;57424;53.128;6.406;2024-03-23T09:16:24;13.20;65.70
66598;DHT22;57424;53.128;6.406;2024-03-23T09:18:51;13.30;65.90
66598;DHT22;57424;53.128;6.406;2024-03-23T09:21:17;13.30;65.90
66598;DHT22;57424;53.128;6.406;2024-03-23T09:23:46;13.40;66.00
66598;DHT22;57424;53.128;6.406;2024-03-23T09:26:12;13.40;66.00
66598;DHT22;57424;53.128;6.406;2024-03-23T09:28:37;13.50;66.00
66598;DHT22;57424;53.128;6.406;2024-03-23T09:31:07;13.60;65.90
66598;DHT22;57424;53.128;6.406;2024-03-23T09:33:36;13.70;66.70
66598;DHT22;57424;53.128;6.406;2024-03-23T09:36:06;13.80;65.70
66598;DHT22;57424;53.128;6.406;2024-03-23T09:38:31;13.90;65.50
66598;DHT22;57424;53.128;6.406;2024-03-23T09:40:58;13.90;65.40
66598;DHT22;57424;53.128;6.406;2024-03-23T09:43:23;13.90;65.20
66598;DHT22;57424;53.128;6.406;2024-03-23T09:45:49;13.90;65.10
66598;DHT22;57424;53.128;6.406;2024-03-23T09:48:16;13.90;65.10
66598;DHT22;57424;53.128;6.406;2024-03-23T09:50:43;14.00;65.20
66598;DHT22;57424;53.128;6.406;2024-03-23T09:53:11;14.10;65.30
66598;DHT22;57424;53.128;6.406;2024-03-23T09:55:37;14.20;65.30
66598;DHT22;57424;53.128;6.406;2024-03-23T09:58:04;14.20;65.10
66598;DHT22;57424;53.128;6.406;2024-03-23T10:00:34;14.20;64.90
66598;DHT22;57424;53.128;6.406;2024-03-23T10:03:00;14.30;64.80
66598;DHT22;57424;53.128;6.406;2024-03-23T10:05:30;14.20;64.60
66598;DHT22;57424;53.128;6.406;2024-03-23T10:10:43;14.30;64.70
66598;DHT22;57424;53.128;6.406;2024-03-23T10:13:09;14.30;64.90
66598;DHT22;57424;53.128;6.406;2024-03-23T10:15:35;14.40;64.90
66598;DHT22;57424;53.128;6.406;2024-03-23T10:18:20;14.50;65.00
66598;DHT22;57424;53.128;6.406;2024-03-23T10:21:06;14.70;65.00
66598;DHT22;57424;53.128;6.406;2024-03-23T10:23:38;14.80;65.00
66598;DHT22;57424;53.128;6.406;2024-03-23T10:26:21;14.90;64.90
66598;DHT22;57424;53.128;6.406;2024-03-23T10:31:31;15.00;64.50
66598;DHT22;57424;53.128;6.406;2024-03-23T10:33:57;15.10;64.40
66598;DHT22;57424;53.128;6.406;2024-03-23T10:36:24;15.10;64.20
66598;DHT22;57424;53.128;6.406;2024-03-23T10:38:51;15.00;63.90
66598;DHT22;57424;53.128;6.406;2024-03-23T10:41:17;15.10;63.70
66598;DHT22;57424;53.128;6.406;2024-03-23T10:43:46;15.00;63.70
66598;DHT22;57424;53.128;6.406;2024-03-23T10:46:12;15.00;63.50
66598;DHT22;57424;53.128;6.406;2024-03-23T10:48:38;15.00;63.40
66598;DHT22;57424;53.128;6.406;2024-03-23T10:51:05;14.90;63.20
66598;DHT22;57424;53.128;6.406;2024-03-23T10:53:33;14.90;63.20
66598;DHT22;57424;53.128;6.406;2024-03-23T10:55:59;14.90;63.20
66598;DHT22;57424;53.128;6.406;2024-03-23T10:58:47;14.80;63.10
66598;DHT22;57424;53.128;6.406;2024-03-23T11:01:13;14.80;62.80
66598;DHT22;57424;53.128;6.406;2024-03-23T11:03:40;14.80;62.80
66598;DHT22;57424;53.128;6.406;2024-03-23T11:06:09;14.80;63.20
66598;DHT22;57424;53.128;6.406;2024-03-23T11:08:39;14.80;63.10
66598;DHT22;57424;53.128;6.406;2024-03-23T11:11:22;14.80;62.90
66598;DHT22;57424;53.128;6.406;2024-03-23T11:13:52;14.80;62.90
66598;DHT22;57424;53.128;6.406;2024-03-23T11:16:26;14.80;63.10
66598;DHT22;57424;53.128;6.406;2024-03-23T11:19:33;14.80;63.50
66598;DHT22;57424;53.128;6.406;2024-03-23T11:21:58;14.90;63.80
66598;DHT22;57424;53.128;6.406;2024-03-23T11:24:24;15.00;63.80
66598;DHT22;57424;53.128;6.406;2024-03-23T11:26:49;15.20;64.80
66598;DHT22;57424;53.128;6.406;2024-03-23T11:29:16;15.20;64.30
66598;DHT22;57424;53.128;6.406;2024-03-23T11:31:49;15.40;64.50
66598;DHT22;57424;53.128;6.406;2024-03-23T11:34:15;15.50;64.40
66598;DHT22;57424;53.128;6.406;2024-03-23T11:36:42;15.60;64.70
66598;DHT22;57424;53.128;6.406;2024-03-23T11:39:16;15.70;65.10
66598;DHT22;57424;53.128;6.406;2024-03-23T11:41:56;15.80;66.70
66598;DHT22;57424;53.128;6.406;2024-03-23T11:44:23;15.80;67.20
66598;DHT22;57424;53.128;6.406;2024-03-23T11:46:50;16.00;68.30
66598;DHT22;57424;53.128;6.406;2024-03-23T11:49:21;16.10;69.30
66598;DHT22;57424;53.128;6.406;2024-03-23T11:51:50;16.10;68.80
66598;DHT22;57424;53.128;6.406;2024-03-23T11:54:19;16.10;68.70
66598;DHT22;57424;53.128;6.406;2024-03-23T11:56:59;16.00;68.40
66598;DHT22;57424;53.128;6.406;2024-03-23T12:02:05;15.90;68.70
66598;DHT22;57424;53.128;6.406;2024-03-23T12:04:31;15.80;68.30
66598;DHT22;57424;53.128;6.406;2024-03-23T12:07:16;15.80;68.50
66598;DHT22;57424;53.128;6.406;2024-03-23T12:10:04;15.80;67.60
66598;DHT22;57424;53.128;6.406;2024-03-23T12:12:31;15.70;66.80
66598;DHT22;57424;53.128;6.406;2024-03-23T12:15:09;15.70;66.30
66598;DHT22;57424;53.128;6.406;2024-03-23T12:17:36;15.60;66.30
66598;DHT22;57424;53.128;6.406;2024-03-23T12:20:02;15.60;66.10
66598;DHT22;57424;53.128;6.406;2024-03-23T12:22:28;15.50;66.20
66598;DHT22;57424;53.128;6.406;2024-03-23T12:24:54;15.40;66.50
66598;DHT22;57424;53.128;6.406;2024-03-23T12:27:20;15.40;67.00
66598;DHT22;57424;53.128;6.406;2024-03-23T12:29:45;15.30;67.00
66598;DHT22;57424;53.128;6.406;2024-03-23T12:32:13;15.30;66.70
66598;DHT22;57424;53.128;6.406;2024-03-23T12:34:39;15.20;67.10
66598;DHT22;57424;53.128;6.406;2024-03-23T12:37:04;15.20;67.40
66598;DHT22;57424;53.128;6.406;2024-03-23T12:39:31;15.20;66.80
66598;DHT22;57424;53.128;6.406;2024-03-23T12:41:57;15.10;66.30
66598;DHT22;57424;53.128;6.406;2024-03-23T12:44:23;15.10;66.00
66598;DHT22;57424;53.128;6.406;2024-03-23T12:46:48;15.10;66.10
66598;DHT22;57424;53.128;6.406;2024-03-23T12:49:14;15.10;66.90
66598;DHT22;57424;53.128;6.406;2024-03-23T12:51:48;15.10;66.70
66598;DHT22;57424;53.128;6.406;2024-03-23T12:54:13;15.10;67.50
66598;DHT22;57424;53.128;6.406;2024-03-23T12:56:39;15.10;67.20
66598;DHT22;57424;53.128;6.406;2024-03-23T12:59:04;15.10;67.90
66598;DHT22;57424;53.128;6.406;2024-03-23T13:01:30;15.20;68.50
66598;DHT22;57424;53.128;6.406;2024-03-23T13:03:57;15.30;68.00
66598;DHT22;57424;53.128;6.406;2024-03-23T13:06:24;15.40;68.60
66598;DHT22;57424;53.128;6.406;2024-03-23T13:08:49;15.50;67.60
66598;DHT22;57424;53.128;6.406;2024-03-23T13:11:15;15.50;67.40
66598;DHT22;57424;53.128;6.406;2024-03-23T13:13:41;15.50;67.00
66598;DHT22;57424;53.128;6.406;2024-03-23T13:16:07;15.50;67.50
66598;DHT22;57424;53.128;6.406;2024-03-23T13:18:33;15.50;66.80
66598;DHT22;57424;53.128;6.406;2024-03-23T13:20:59;15.60;67.60
66598;DHT22;57424;53.128;6.406;2024-03-23T13:23:24;15.70;67.80
66598;DHT22;57424;53.128;6.406;2024-03-23T13:25:54;15.80;67.60
66598;DHT22;57424;53.128;6.406;2024-03-23T13:28:23;16.00;67.20
66598;DHT22;57424;53.128;6.406;2024-03-23T13:30:53;16.10;66.80
66598;DHT22;57424;53.128;6.406;2024-03-23T13:33:19;16.20;66.40
66598;DHT22;57424;53.128;6.406;2024-03-23T13:35:55;16.40;66.10
66598;DHT22;57424;53.128;6.406;2024-03-23T13:38:21;16.50;65.70
66598;DHT22;57424;53.128;6.406;2024-03-23T13:40:58;16.50;65.40
66598;DHT22;57424;53.128;6.406;2024-03-23T13:43:24;16.40;65.00
66598;DHT22;57424;53.128;6.406;2024-03-23T13:45:53;16.40;65.10
66598;DHT22;57424;53.128;6.406;2024-03-23T13:48:20;16.30;66.40
66598;DHT22;57424;53.128;6.406;2024-03-23T13:50:46;16.30;65.60
66598;DHT22;57424;53.128;6.406;2024-03-23T13:53:15;16.30;65.70
66598;DHT22;57424;53.128;6.406;2024-03-23T13:55:49;16.30;65.60
66598;DHT22;57424;53.128;6.406;2024-03-23T13:58:15;16.40;65.40
66598;DHT22;57424;53.128;6.406;2024-03-23T14:00:41;16.40;65.30
66598;DHT22;57424;53.128;6.406;2024-03-23T14:03:10;16.50;65.30
66598;DHT22;57424;53.128;6.406;2024-03-23T14:05:36;16.50;65.20
66598;DHT22;57424;53.128;6.406;2024-03-23T14:08:07;16.60;65.20
66598;DHT22;57424;53.128;6.406;2024-03-23T14:10:33;16.60;65.10
66598;DHT22;57424;53.128;6.406;2024-03-23T14:12:58;16.60;65.30
66598;DHT22;57424;53.128;6.406;2024-03-23T14:15:27;16.50;65.30
66598;DHT22;57424;53.128;6.406;2024-03-23T14:17:53;16.50;65.20
66598;DHT22;57424;53.128;6.406;2024-03-23T14:20:20;16.50;65.10
66598;DHT22;57424;53.128;6.406;2024-03-23T14:22:45;16.50;64.80
66598;DHT22;57424;53.128;6.406;2024-03-23T14:25:11;16.50;64.70
66598;DHT22;57424;53.128;6.406;2024-03-23T14:27:36;16.50;64.70
66598;DHT22;57424;53.128;6.406;2024-03-23T14:30:03;16.50;64.60
66598;DHT22;57424;53.128;6.406;2024-03-23T14:32:30;16.50;64.50
66598;DHT22;57424;53.128;6.406;2024-03-23T14:35:00;16.60;64.50
66598;DHT22;57424;53.128;6.406;2024-03-23T14:37:25;16.60;64.40
66598;DHT22;57424;53.128;6.406;2024-03-23T14:39:51;16.60;64.30
66598;DHT22;57424;53.128;6.406;2024-03-23T14:42:16;16.60;64.20
66598;DHT22;57424;53.128;6.406;2024-03-23T14:44:42;16.60;64.10
66598;DHT22;57424;53.128;6.406;2024-03-23T14:47:08;16.70;64.10
66598;DHT22;57424;53.128;6.406;2024-03-23T14:49:33;16.60;64.00
66598;DHT22;57424;53.128;6.406;2024-03-23T14:51:59;16.60;64.20
66598;DHT22;57424;53.128;6.406;2024-03-23T14:54:24;16.60;64.10
66598;DHT22;57424;53.128;6.406;2024-03-23T14:56:50;16.50;64.10
66598;DHT22;57424;53.128;6.406;2024-03-23T14:59:15;16.50;64.00
66598;DHT22;57424;53.128;6.406;2024-03-23T15:01:41;16.50;64.10
66598;DHT22;57424;53.128;6.406;2024-03-23T15:04:07;16.50;64.00
66598;DHT22;57424;53.128;6.406;2024-03-23T15:06:33;16.60;63.90
66598;DHT22;57424;53.128;6.406;2024-03-23T15:08:59;16.60;63.80
66598;DHT22;57424;53.128;6.406;2024-03-23T15:11:24;16.60;63.70
66598;DHT22;57424;53.128;6.406;2024-03-23T15:13:50;16.60;63.70
66598;DHT22;57424;53.128;6.406;2024-03-23T15:16:19;16.60;63.70
66598;DHT22;57424;53.128;6.406;2024-03-23T15:18:47;16.60;63.70
66598;DHT22;57424;53.128;6.406;2024-03-23T15:21:14;16.60;63.60
66598;DHT22;57424;53.128;6.406;2024-03-23T15:23:45;16.70;63.60
66598;DHT22;57424;53.128;6.406;2024-03-23T15:26:10;16.70;63.50
66598;DHT22;57424;53.128;6.406;2024-03-23T15:28:36;16.70;63.40
66598;DHT22;57424;53.128;6.406;2024-03-23T15:31:35;16.70;63.30
66598;DHT22;57424;53.128;6.406;2024-03-23T15:34:01;16.70;63.30
66598;DHT22;57424;53.128;6.406;2024-03-23T15:36:26;16.80;63.30
66598;DHT22;57424;53.128;6.406;2024-03-23T15:38:52;16.80;63.20
66598;DHT22;57424;53.128;6.406;2024-03-23T15:41:20;16.80;63.10
66598;DHT22;57424;53.128;6.406;2024-03-23T15:43:46;16.80;63.00
66598;DHT22;57424;53.128;6.406;2024-03-23T15:46:11;16.80;62.90
66598;DHT22;57424;53.128;6.406;2024-03-23T15:48:37;16.80;62.80
66598;DHT22;57424;53.128;6.406;2024-03-23T15:51:03;16.80;62.80
66598;DHT22;57424;53.128;6.406;2024-03-23T15:53:29;16.80;62.70
66598;DHT22;57424;53.128;6.406;2024-03-23T15:55:56;16.80;62.60
66598;DHT22;57424;53.128;6.406;2024-03-23T15:58:22;16.80;62.60
66598;DHT22;57424;53.128;6.406;2024-03-23T16:03:23;16.80;62.50
66598;DHT22;57424;53.128;6.406;2024-03-23T16:05:53;16.80;62.50
66598;DHT22;57424;53.128;6.406;2024-03-23T16:08:19;16.70;62.60
66598;DHT22;57424;53.128;6.406;2024-03-23T16:10:45;16.80;62.70
66598;DHT22;57424;53.128;6.406;2024-03-23T16:13:10;16.80;62.70
66598;DHT22;57424;53.128;6.406;2024-03-23T16:15:36;16.80;62.60
66598;DHT22;57424;53.128;6.406;2024-03-23T16:18:02;16.80;62.60
66598;DHT22;57424;53.128;6.406;2024-03-23T16:20:27;16.80;62.40
66598;DHT22;57424;53.128;6.406;2024-03-23T16:22:53;16.80;62.20
66598;DHT22;57424;53.128;6.406;2024-03-23T16:25:18;16.80;62.10
66598;DHT22;57424;53.128;6.406;2024-03-23T16:27:44;16.80;62.10
66598;DHT22;57424;53.128;6.406;2024-03-23T16:30:11;16.70;61.90
66598;DHT22;57424;53.128;6.406;2024-03-23T16:32:36;16.70;61.70